createdAt,value
2023-04-11T05:03:21.461Z,19.90
2023-04-11T05:04:22.401Z,20.15
2023-04-11T05:05:22.258Z,20.40
2023-04-11T05:06:22.278Z,20.61
2023-04-11T05:07:21.309Z,20.84
2023-04-11T05:08:22.309Z,21.02
2023-04-11T05:09:22.361Z,21.15
2023-04-11T05:10:22.418Z,21.24
2023-04-11T05:11:22.454Z,21.36
2023-04-11T05:12:22.504Z,21.45
2023-04-11T05:13:22.529Z,21.50
2023-04-11T05:14:21.644Z,21.56
2023-04-11T05:15:21.567Z,21.63
2023-04-11T05:16:22.603Z,21.65
2023-04-11T05:17:23.890Z,21.61
2023-04-11T05:18:21.628Z,21.41
2023-04-11T05:19:21.648Z,21.19
2023-04-11T05:20:22.621Z,21.08
2023-04-11T05:21:21.617Z,20.95
2023-04-11T05:22:21.620Z,20.78
2023-04-11T05:23:21.613Z,20.83
2023-04-11T05:24:21.584Z,20.78
2023-04-11T05:25:21.586Z,20.82
2023-04-11T05:26:22.562Z,20.81
2023-04-11T05:27:21.556Z,20.84
2023-04-11T05:28:22.560Z,20.97
2023-04-11T05:29:22.559Z,20.95
2023-04-11T05:30:21.528Z,20.88
2023-04-11T05:31:22.626Z,20.97
2023-04-11T05:32:21.593Z,21.14
2023-04-11T05:33:22.531Z,21.00
2023-04-11T05:34:22.512Z,21.12
2023-04-11T05:35:22.533Z,21.29
2023-04-11T05:36:22.495Z,21.43
2023-04-11T05:37:22.485Z,21.46
2023-04-11T05:38:22.480Z,21.56
2023-04-11T05:39:22.477Z,21.45
2023-04-11T05:40:22.463Z,21.44
2023-04-11T05:41:21.487Z,21.54
2023-04-11T05:42:22.462Z,21.50
2023-04-11T05:43:22.454Z,21.54
2023-04-11T05:44:21.457Z,21.46
2023-04-11T05:45:22.437Z,21.44
2023-04-11T05:46:22.434Z,21.55
2023-04-11T05:47:21.436Z,21.58
2023-04-11T05:48:22.418Z,21.51
2023-04-11T05:49:22.409Z,21.50
2023-04-11T05:50:22.403Z,21.65
2023-04-11T05:51:21.446Z,21.61
2023-04-11T05:52:22.385Z,21.61
2023-04-11T05:53:21.391Z,21.67
2023-04-11T05:54:21.367Z,21.71
2023-04-11T05:55:22.376Z,21.60
2023-04-11T05:56:21.365Z,21.64
2023-04-11T05:57:21.351Z,21.64
2023-04-11T05:58:21.341Z,21.67
2023-04-11T05:59:26.405Z,21.72
2023-04-11T06:00:22.368Z,21.78
2023-04-11T06:01:22.382Z,21.87
2023-04-11T06:02:22.391Z,21.78
2023-04-11T06:03:22.516Z,21.41
2023-04-11T06:04:21.490Z,21.31
2023-04-11T06:05:21.315Z,21.38
2023-04-11T06:06:21.311Z,21.32
2023-04-11T06:07:21.334Z,21.33
2023-04-11T06:08:22.308Z,21.28
2023-04-11T06:09:22.296Z,21.33
2023-04-11T06:10:22.271Z,21.31
2023-04-11T06:11:21.268Z,21.42
2023-04-11T06:12:22.345Z,21.49
2023-04-11T06:13:22.250Z,21.45
2023-04-11T06:14:21.245Z,21.54
2023-04-11T06:15:22.257Z,21.61
2023-04-11T06:16:22.285Z,21.53
2023-04-11T06:17:22.372Z,21.44
2023-04-11T06:18:21.232Z,21.50
2023-04-11T06:19:22.196Z,21.54
2023-04-11T06:20:22.233Z,21.50
2023-04-11T06:21:22.199Z,21.51
2023-04-11T06:22:21.190Z,21.49
2023-04-11T06:23:21.209Z,21.40
2023-04-11T06:24:22.214Z,21.36
2023-04-11T06:25:22.198Z,21.44
2023-04-11T06:26:21.165Z,21.53
2023-04-11T06:27:22.154Z,21.40
2023-04-11T06:28:22.184Z,21.46
2023-04-11T06:29:22.129Z,21.48
2023-04-11T06:30:21.119Z,21.53
2023-04-11T06:31:22.220Z,21.53
2023-04-11T06:32:22.187Z,21.61
2023-04-11T06:33:21.148Z,21.66
2023-04-11T06:34:21.180Z,21.62
2023-04-11T06:35:22.165Z,21.65
2023-04-11T06:36:22.170Z,21.59
2023-04-11T06:37:22.152Z,21.71
2023-04-11T06:38:21.147Z,21.84
2023-04-11T06:39:21.167Z,21.83
2023-04-11T06:40:22.159Z,21.83
2023-04-11T06:41:22.194Z,21.78
2023-04-11T06:42:21.270Z,21.87
2023-04-11T06:43:22.349Z,21.81
2023-04-11T06:44:22.400Z,21.93
2023-04-11T06:45:22.410Z,21.95
2023-04-11T06:46:22.548Z,21.94
2023-04-11T06:47:22.555Z,22.01
2023-04-11T06:48:22.558Z,21.99
2023-04-11T06:49:22.614Z,22.05
2023-04-11T06:50:21.661Z,22.11
2023-04-11T06:51:21.707Z,22.12
2023-04-11T06:52:22.726Z,22.22
2023-04-11T06:53:23.049Z,22.02
2023-04-11T06:54:22.858Z,21.98
2023-04-11T06:55:22.894Z,21.97
2023-04-11T06:56:22.933Z,22.18
2023-04-11T06:57:23.038Z,22.25
2023-04-11T06:58:23.527Z,22.26
2023-04-11T06:59:24.746Z,22.16
2023-04-11T07:00:23.379Z,22.27
2023-04-11T07:01:23.447Z,22.39
2023-04-11T07:02:23.596Z,22.51
2023-04-11T07:03:23.692Z,22.53
2023-04-11T07:04:23.627Z,22.64
2023-04-11T07:05:23.552Z,22.69
2023-04-11T07:06:23.546Z,22.73
2023-04-11T07:07:22.548Z,22.73
2023-04-11T07:08:23.528Z,22.73
2023-04-11T07:09:23.515Z,22.70
2023-04-11T07:10:22.562Z,22.68
2023-04-11T07:11:23.516Z,22.60
2023-04-11T07:12:23.518Z,22.65
2023-04-11T07:13:23.520Z,22.64
2023-04-11T07:14:23.515Z,22.75
2023-04-11T07:15:24.037Z,22.67
2023-04-11T07:16:23.553Z,22.64
2023-04-11T07:17:23.587Z,22.62
2023-04-11T07:18:22.567Z,22.66
2023-04-11T07:19:23.541Z,22.62
2023-04-11T07:20:23.549Z,22.62
2023-04-11T07:21:23.539Z,22.52
2023-04-11T07:22:23.535Z,22.59
2023-04-11T07:23:23.884Z,22.61
2023-04-11T07:24:23.536Z,22.60
2023-04-11T07:25:23.536Z,22.52
2023-04-11T07:26:23.606Z,22.58
2023-04-11T07:27:22.546Z,22.69
2023-04-11T07:28:23.560Z,22.69
2023-04-11T07:29:23.568Z,22.60
2023-04-11T07:30:23.575Z,22.63
2023-04-11T07:31:23.588Z,22.60
2023-04-11T07:32:22.666Z,22.64
2023-04-11T07:33:23.567Z,22.68
2023-04-11T07:34:23.560Z,22.67
2023-04-11T07:35:23.573Z,22.61
2023-04-11T07:36:23.596Z,22.62
2023-04-11T07:37:23.585Z,22.54
2023-04-11T07:38:23.600Z,22.62
2023-04-11T07:39:23.589Z,22.64
2023-04-11T07:40:23.602Z,22.70
2023-04-11T07:41:23.593Z,22.70
2023-04-11T07:42:23.827Z,22.80
2023-04-11T07:43:23.595Z,22.74
2023-04-11T07:44:24.197Z,22.73
2023-04-11T07:45:23.663Z,22.72
2023-04-11T07:46:23.589Z,22.57
2023-04-11T07:47:22.629Z,22.49
2023-04-11T07:48:24.037Z,22.54
2023-04-11T07:49:23.610Z,22.66
2023-04-11T07:50:22.615Z,22.58
2023-04-11T07:51:22.666Z,22.46
2023-04-11T07:52:23.685Z,22.43
2023-04-11T07:53:23.044Z,22.37
2023-04-11T07:54:22.750Z,22.36
2023-04-11T07:55:22.781Z,22.23
2023-04-11T07:56:23.788Z,22.31
2023-04-11T07:57:23.823Z,22.25
2023-04-11T07:58:22.841Z,22.12
2023-04-11T07:59:23.836Z,22.19
2023-04-11T08:00:23.835Z,22.33
2023-04-11T08:01:23.820Z,22.26
2023-04-11T08:02:22.875Z,22.23
2023-04-11T08:03:24.132Z,22.13
2023-04-11T08:04:24.114Z,22.17
2023-04-11T08:05:23.977Z,22.15
2023-04-11T08:06:23.889Z,22.17
2023-04-11T08:07:23.908Z,22.43
2023-04-11T08:08:23.060Z,22.54
2023-04-11T08:09:23.950Z,22.55
2023-04-11T08:10:24.007Z,22.58
2023-04-11T08:11:24.021Z,22.66
2023-04-11T08:12:24.085Z,22.71
2023-04-11T08:13:24.148Z,22.63
2023-04-11T08:14:24.217Z,22.52
2023-04-11T08:15:24.198Z,22.67
2023-04-11T08:16:23.246Z,22.63
2023-04-11T08:17:28.320Z,22.69
2023-04-11T08:18:24.528Z,22.74
2023-04-11T08:19:24.556Z,22.77
2023-04-11T08:20:24.696Z,22.80
2023-04-11T08:21:24.665Z,22.70
2023-04-11T08:22:23.708Z,22.59
2023-04-11T08:23:23.811Z,22.68
2023-04-11T08:24:24.835Z,22.73
2023-04-11T08:25:24.908Z,22.63
2023-04-11T08:26:24.939Z,22.65
2023-04-11T08:27:24.979Z,22.77
2023-04-11T08:28:24.048Z,22.77
2023-04-11T08:29:25.066Z,22.86
2023-04-11T08:30:25.168Z,22.97
2023-04-11T08:31:25.257Z,22.96
2023-04-11T08:32:25.222Z,22.94
2023-04-11T08:33:25.253Z,22.89
2023-04-11T08:34:25.295Z,22.76
2023-04-11T08:35:25.357Z,22.69
2023-04-11T08:36:25.401Z,22.80
2023-04-11T08:37:24.430Z,22.90
2023-04-11T08:38:25.525Z,22.87
2023-04-11T08:39:25.544Z,22.93
2023-04-11T08:40:27.077Z,22.97
2023-04-11T08:41:25.842Z,22.87
2023-04-11T08:42:24.878Z,22.95
2023-04-11T08:43:26.083Z,23.00
2023-04-11T08:44:25.984Z,22.89
2023-04-11T08:45:26.036Z,22.83
2023-04-11T08:46:26.131Z,22.67
2023-04-11T08:47:25.114Z,22.71
2023-04-11T08:48:25.452Z,22.78
2023-04-11T08:49:26.171Z,22.89
2023-04-11T08:50:26.277Z,22.83
2023-04-11T08:51:26.255Z,22.68
2023-04-11T08:52:26.259Z,22.71
2023-04-11T08:53:25.289Z,22.57
2023-04-11T08:54:25.350Z,22.67
2023-04-11T08:55:26.364Z,22.81
2023-04-11T08:56:26.438Z,22.80
2023-04-11T08:57:26.505Z,22.75
2023-04-11T08:58:26.515Z,22.77
2023-04-11T08:59:25.547Z,22.82
2023-04-11T09:00:25.618Z,22.81
2023-04-11T09:01:25.718Z,22.84
2023-04-11T09:02:26.838Z,23.00
2023-04-11T09:03:25.822Z,22.96
2023-04-11T09:04:27.065Z,23.01
2023-04-11T09:05:25.927Z,23.01
2023-04-11T09:06:26.954Z,22.99
2023-04-11T09:07:27.014Z,22.97
2023-04-11T09:08:27.094Z,22.98
2023-04-11T09:09:26.141Z,23.03
2023-04-11T09:10:27.177Z,23.04
2023-04-11T09:11:27.221Z,22.99
2023-04-11T09:12:29.159Z,22.97
2023-04-11T09:13:27.284Z,23.02
2023-04-11T09:14:27.385Z,23.03
2023-04-11T09:15:26.412Z,23.01
2023-04-11T09:16:26.261Z,23.00
2023-04-11T09:17:26.263Z,22.96
2023-04-11T09:18:27.249Z,22.88
2023-04-11T09:19:26.217Z,22.89
2023-04-11T09:20:26.213Z,22.84
2023-04-11T09:21:27.206Z,22.80
2023-04-11T09:22:27.191Z,22.76
2023-04-11T09:23:27.376Z,22.86
2023-04-11T09:24:26.192Z,22.91
2023-04-11T09:25:26.212Z,22.90
2023-04-11T09:26:27.189Z,22.91
2023-04-11T09:27:27.168Z,22.95
2023-04-11T09:28:27.185Z,23.07
2023-04-11T09:29:27.166Z,23.07
2023-04-11T09:30:27.156Z,23.10
2023-04-11T09:31:27.202Z,23.08
2023-04-11T09:32:26.160Z,23.14
2023-04-11T09:33:26.145Z,23.10
2023-04-11T09:34:27.186Z,23.25
2023-04-11T09:35:27.121Z,23.25
2023-04-11T09:36:27.147Z,23.25
2023-04-11T09:37:27.113Z,23.19
2023-04-11T09:38:27.082Z,23.19
2023-04-11T09:39:26.100Z,23.18
2023-04-11T09:40:27.096Z,23.23
2023-04-11T09:41:27.071Z,23.28
2023-04-11T09:42:26.080Z,23.25
2023-04-11T09:43:27.076Z,23.29
2023-04-11T09:44:27.064Z,23.34
2023-04-11T09:45:27.035Z,23.38
2023-04-11T09:46:27.092Z,23.40
2023-04-11T09:47:27.038Z,23.43
2023-04-11T09:48:43.425Z,23.45
2023-04-11T09:49:27.029Z,23.40
2023-04-11T09:50:27.023Z,23.48
2023-04-11T09:51:36.581Z,23.47
2023-04-11T09:52:26.996Z,23.63
2023-04-11T09:53:26.990Z,23.82
2023-04-11T09:54:26.093Z,23.82
2023-04-11T09:55:26.956Z,23.90
2023-04-11T09:56:26.980Z,23.95
2023-04-11T09:57:25.970Z,23.98
2023-04-11T09:58:26.965Z,24.07
2023-04-11T09:59:26.969Z,24.10
2023-04-11T10:00:26.923Z,24.08
2023-04-11T10:01:26.947Z,24.07
2023-04-11T10:02:26.966Z,24.02
2023-04-11T10:03:26.983Z,23.98
2023-04-11T10:04:26.951Z,23.97
2023-04-11T10:05:26.907Z,23.97
2023-04-11T10:06:26.915Z,23.90
2023-04-11T10:07:26.881Z,23.92
2023-04-11T10:08:26.872Z,23.95
2023-04-11T10:09:25.869Z,23.96
2023-04-11T10:10:26.858Z,23.97
2023-04-11T10:11:25.853Z,23.89
2023-04-11T10:12:26.849Z,23.90
2023-04-11T10:13:26.834Z,23.83
2023-04-11T10:14:25.830Z,23.79
2023-04-11T10:15:26.823Z,23.88
2023-04-11T10:16:25.844Z,23.88
2023-04-11T10:17:25.835Z,23.86
2023-04-11T10:18:25.801Z,23.76
2023-04-11T10:19:26.843Z,23.79
2023-04-11T10:20:26.784Z,23.81
2023-04-11T10:21:26.767Z,23.79
2023-04-11T10:22:26.847Z,23.77
2023-04-11T10:23:25.841Z,23.76
2023-04-11T10:24:25.880Z,23.72
2023-04-11T10:25:25.935Z,23.76
2023-04-11T10:26:25.973Z,23.74
2023-04-11T10:27:27.022Z,23.71
2023-04-11T10:28:26.100Z,23.74
2023-04-11T10:29:27.162Z,23.76
2023-04-11T10:30:27.185Z,23.69
2023-04-11T10:31:26.294Z,23.63
2023-04-11T10:32:27.289Z,23.71
2023-04-11T10:33:27.323Z,23.71
2023-04-11T10:34:26.360Z,23.72
2023-04-11T10:35:27.419Z,23.76
2023-04-11T10:36:27.479Z,23.76
2023-04-11T10:37:27.509Z,23.73
2023-04-11T10:38:27.600Z,23.71
2023-04-11T10:39:27.616Z,23.69
2023-04-11T10:40:27.667Z,23.75
2023-04-11T10:41:27.791Z,23.62
2023-04-11T10:42:27.790Z,23.66
2023-04-11T10:43:27.799Z,23.67
2023-04-11T10:44:27.110Z,23.62
2023-04-11T10:45:27.881Z,23.60
2023-04-11T10:46:27.937Z,23.62
2023-04-11T10:47:27.970Z,23.64
2023-04-11T10:48:26.977Z,23.67
2023-04-11T10:49:28.109Z,23.66
2023-04-11T10:50:27.018Z,23.63
2023-04-11T10:51:27.070Z,23.59
2023-04-11T10:52:28.059Z,23.66
2023-04-11T10:53:27.092Z,23.60
2023-04-11T10:54:28.149Z,23.59
2023-04-11T10:55:28.112Z,23.60
2023-04-11T10:56:27.103Z,23.58
2023-04-11T10:57:28.101Z,23.53
2023-04-11T10:58:27.119Z,23.51
2023-04-11T10:59:27.125Z,23.54
2023-04-11T11:00:27.123Z,23.53
2023-04-11T11:01:37.265Z,23.53
2023-04-11T11:02:28.416Z,23.53
2023-04-11T11:03:27.179Z,23.50
2023-04-11T11:04:28.218Z,23.47
2023-04-11T11:05:27.093Z,23.56
2023-04-11T11:06:28.104Z,23.50
2023-04-11T11:07:28.075Z,23.49
2023-04-11T11:08:28.069Z,23.56
2023-04-11T11:09:27.061Z,23.50
2023-04-11T11:10:27.074Z,23.52
2023-04-11T11:11:28.049Z,23.53
2023-04-11T11:12:28.034Z,23.50
2023-04-11T11:13:28.032Z,23.49
2023-04-11T11:14:28.028Z,23.55
2023-04-11T11:15:28.015Z,23.53
2023-04-11T11:16:28.025Z,23.48
2023-04-11T11:17:27.044Z,23.50
2023-04-11T11:18:28.002Z,23.55
2023-04-11T11:19:26.996Z,23.52
2023-04-11T11:20:27.961Z,23.52
2023-04-11T11:21:28.329Z,23.53
2023-04-11T11:22:26.968Z,23.53
2023-04-11T11:23:27.935Z,23.52
2023-04-11T11:24:26.955Z,23.50
2023-04-11T11:25:27.936Z,23.47
2023-04-11T11:26:26.949Z,23.50
2023-04-11T11:27:26.911Z,23.50
2023-04-11T11:29:26.926Z,23.52
2023-04-11T11:30:27.895Z,23.58
2023-04-11T11:31:27.912Z,23.56
2023-04-11T11:32:26.894Z,23.56
2023-04-11T11:33:27.907Z,23.53
2023-04-11T11:34:27.867Z,23.49
2023-04-11T11:35:27.854Z,23.45
2023-04-11T11:36:27.866Z,23.48
2023-04-11T11:37:27.857Z,23.47
2023-04-11T11:38:27.838Z,23.47
2023-04-11T11:39:28.122Z,23.50
2023-04-11T11:40:26.826Z,23.42
2023-04-11T11:41:27.805Z,23.45
2023-04-11T11:42:27.846Z,23.44
2023-04-11T11:43:27.817Z,23.44
2023-04-11T11:44:27.807Z,23.47
2023-04-11T11:45:27.805Z,23.46
2023-04-11T11:46:27.810Z,23.45
2023-04-11T11:47:27.843Z,23.50
2023-04-11T11:48:27.756Z,23.49
2023-04-11T11:49:27.772Z,23.47
2023-04-11T11:50:26.752Z,23.45
2023-04-11T11:51:27.744Z,23.41
2023-04-11T11:52:26.738Z,23.35
2023-04-11T11:53:27.724Z,23.33
2023-04-11T11:54:26.736Z,23.42
2023-04-11T11:55:26.737Z,23.53
2023-04-11T11:56:27.728Z,23.59
2023-04-11T11:57:26.697Z,23.52
2023-04-11T11:58:26.747Z,23.44
2023-04-11T11:59:27.707Z,23.50
2023-04-11T12:00:27.680Z,23.36
2023-04-11T12:01:26.693Z,23.34
2023-04-11T12:02:26.888Z,23.40
2023-04-11T12:03:28.006Z,23.42
2023-04-11T12:04:26.785Z,23.32
2023-04-11T12:05:27.668Z,23.22
2023-04-11T12:06:27.706Z,23.30
2023-04-11T12:07:26.630Z,23.32
2023-04-11T12:08:26.624Z,23.26
2023-04-11T12:09:26.620Z,23.28
2023-04-11T12:10:26.601Z,23.31
2023-04-11T12:11:26.596Z,23.40
2023-04-11T12:12:27.602Z,23.45
2023-04-11T12:13:27.625Z,23.35
2023-04-11T12:14:27.640Z,23.38
2023-04-11T12:15:27.572Z,23.35
2023-04-11T12:16:26.711Z,23.37
2023-04-11T12:17:26.585Z,23.34
2023-04-11T12:18:26.609Z,23.30
2023-04-11T12:19:27.560Z,23.34
2023-04-11T12:20:27.572Z,23.38
2023-04-11T12:21:27.540Z,23.31
2023-04-11T12:22:27.532Z,23.32
2023-04-11T12:23:26.535Z,23.38
2023-04-11T12:24:26.512Z,23.36
2023-04-11T12:25:27.521Z,23.35
2023-04-11T12:26:27.512Z,23.39
2023-04-11T12:27:27.492Z,23.38
2023-04-11T12:28:27.498Z,23.40
2023-04-11T12:29:27.485Z,23.42
2023-04-11T12:30:29.473Z,23.35
2023-04-11T12:31:26.568Z,23.34
2023-04-11T12:32:27.455Z,23.33
2023-04-11T12:33:27.471Z,23.33
2023-04-11T12:34:27.441Z,23.33
2023-04-11T12:35:27.427Z,23.30
2023-04-11T12:36:27.447Z,23.33
2023-04-11T12:37:26.431Z,23.29
2023-04-11T12:38:26.442Z,23.25
2023-04-11T12:39:26.420Z,23.32
2023-04-11T12:40:26.393Z,23.32
2023-04-11T12:41:31.792Z,23.29
2023-04-11T12:42:27.702Z,23.28
2023-04-11T12:43:27.368Z,23.30
2023-04-11T12:44:27.356Z,23.32
2023-04-11T12:45:27.363Z,23.23
2023-04-11T12:46:27.405Z,23.23
2023-04-11T12:47:26.357Z,23.26
2023-04-11T12:48:27.331Z,23.23
2023-04-11T12:49:27.357Z,23.24
2023-04-11T12:50:27.339Z,23.25
2023-04-11T12:51:27.311Z,23.28
2023-04-11T12:52:26.305Z,23.26
2023-04-11T12:53:27.298Z,23.21
2023-04-11T12:54:27.300Z,23.20
2023-04-11T12:55:27.359Z,23.24
2023-04-11T12:56:27.324Z,23.21
2023-04-11T12:57:27.287Z,23.29
2023-04-11T12:58:26.248Z,23.29
2023-04-11T12:59:27.246Z,23.29
2023-04-11T13:00:27.239Z,23.27
2023-04-11T13:01:26.248Z,23.28
2023-04-11T13:02:29.339Z,23.32
2023-04-11T13:03:27.579Z,23.28
2023-04-11T13:04:27.257Z,23.26
2023-04-11T13:05:27.199Z,23.32
2023-04-11T13:06:27.205Z,23.31
2023-04-11T13:07:26.168Z,23.31
2023-04-11T13:08:27.177Z,23.33
2023-04-11T13:09:27.161Z,23.25
2023-04-11T13:10:27.166Z,23.28
2023-04-11T13:11:26.161Z,23.27
2023-04-11T13:12:26.156Z,23.31
2023-04-11T13:13:27.138Z,23.33
2023-04-11T13:14:26.207Z,23.30
2023-04-11T13:15:26.127Z,23.28
2023-04-11T13:16:27.156Z,23.24
2023-04-11T13:17:27.165Z,23.25
2023-04-11T13:18:27.210Z,23.26
2023-04-11T13:19:27.101Z,23.30
2023-04-11T13:20:27.089Z,23.27
2023-04-11T13:21:26.080Z,23.27
2023-04-11T13:22:27.066Z,23.28
2023-04-11T13:23:27.069Z,23.28
2023-04-11T13:24:27.063Z,23.24
2023-04-11T13:25:26.039Z,23.27
2023-04-11T13:26:26.041Z,23.21
2023-04-11T13:27:27.020Z,23.19
2023-04-11T13:28:27.021Z,23.19
2023-04-11T13:29:27.014Z,23.20
2023-04-11T13:30:27.010Z,23.19
2023-04-11T13:31:27.028Z,23.21
2023-04-11T13:32:27.068Z,23.21
2023-04-11T13:33:26.988Z,23.20
2023-04-11T13:34:27.023Z,23.17
2023-04-11T13:35:27.385Z,23.17
2023-04-11T13:36:27.077Z,23.14
2023-04-11T13:37:26.984Z,23.14
2023-04-11T13:38:26.950Z,23.15
2023-04-11T13:39:26.960Z,23.21
2023-04-11T13:40:26.970Z,23.16
2023-04-11T13:41:25.974Z,23.17
2023-04-11T13:42:27.017Z,23.18
2023-04-11T13:43:27.004Z,23.21
2023-04-11T13:44:27.014Z,23.19
2023-04-11T13:45:26.049Z,23.19
2023-04-11T13:46:27.046Z,23.16
2023-04-11T13:47:26.062Z,23.16
2023-04-11T13:48:27.074Z,23.16
2023-04-11T13:49:27.070Z,23.19
2023-04-11T13:50:26.107Z,23.17
2023-04-11T13:51:27.109Z,23.22
2023-04-11T13:52:27.101Z,23.28
2023-04-11T13:53:27.132Z,23.27
2023-04-11T13:54:27.145Z,23.28
2023-04-11T13:55:27.167Z,23.25
2023-04-11T13:56:26.152Z,23.19
2023-04-11T13:57:26.177Z,23.17
2023-04-11T13:58:27.190Z,23.17
2023-04-11T13:59:27.221Z,23.20
2023-04-11T14:00:27.240Z,23.19
2023-04-11T14:01:27.343Z,23.20
2023-04-11T14:02:27.532Z,23.19
2023-04-11T14:03:27.451Z,23.23
2023-04-11T14:04:27.466Z,23.21
2023-04-11T14:05:27.396Z,23.23
2023-04-11T14:06:27.460Z,23.22
2023-04-11T14:07:26.448Z,23.19
2023-04-11T14:08:27.482Z,23.18
2023-04-11T14:09:26.500Z,23.21
2023-04-11T14:10:27.146Z,23.20
2023-04-11T14:11:27.590Z,23.25
2023-04-11T14:12:26.583Z,23.23
2023-04-11T14:13:27.607Z,23.24
2023-04-11T14:14:26.637Z,23.26
2023-04-11T14:15:26.666Z,23.26
2023-04-11T14:16:27.710Z,23.24
2023-04-11T14:17:27.760Z,23.25
2023-04-11T14:18:26.731Z,23.25
2023-04-11T14:19:26.764Z,23.25
2023-04-11T14:20:26.781Z,23.22
2023-04-11T14:21:28.808Z,23.19
2023-04-11T14:22:26.875Z,23.17
2023-04-11T14:23:27.869Z,23.16
2023-04-11T14:24:27.876Z,23.18
2023-04-11T14:25:27.903Z,23.18
2023-04-11T14:26:26.895Z,23.20
2023-04-11T14:27:27.921Z,23.14
2023-04-11T14:28:27.927Z,23.22
2023-04-11T14:29:27.916Z,23.24
2023-04-11T14:30:28.094Z,23.25
2023-04-11T14:31:28.003Z,23.24
2023-04-11T14:32:27.984Z,23.20
2023-04-11T14:33:26.922Z,23.19
2023-04-11T14:34:26.927Z,23.21
2023-04-11T14:35:27.946Z,23.20
2023-04-11T14:36:28.132Z,23.19
2023-04-11T14:37:27.967Z,23.21
2023-04-11T14:38:27.989Z,23.23
2023-04-11T14:39:26.936Z,23.19
2023-04-11T14:40:27.955Z,23.21
2023-04-11T14:41:27.943Z,23.27
2023-04-11T14:42:27.967Z,23.23
2023-04-11T14:43:26.956Z,23.23
2023-04-11T14:44:28.096Z,23.30
2023-04-11T14:45:27.975Z,23.26
2023-04-11T14:46:28.013Z,23.22
2023-04-11T14:47:28.065Z,23.20
2023-04-11T14:48:27.996Z,23.26
2023-04-11T14:49:27.975Z,23.21
2023-04-11T14:50:29.003Z,23.24
2023-04-11T14:51:27.004Z,23.22
2023-04-11T14:52:26.987Z,23.28
2023-04-11T14:53:27.986Z,23.29
2023-04-11T14:54:28.024Z,23.26
2023-04-11T14:55:28.009Z,23.24
2023-04-11T14:56:26.976Z,23.24
2023-04-11T14:57:27.984Z,23.27
2023-04-11T14:58:26.967Z,23.25
2023-04-11T14:59:27.975Z,23.24
2023-04-11T15:00:27.002Z,23.26
2023-04-11T15:01:28.042Z,23.25
2023-04-11T15:02:29.909Z,23.26
2023-04-11T15:03:27.277Z,23.23
2023-04-11T15:04:27.073Z,23.26
2023-04-11T15:05:27.987Z,23.21
2023-04-11T15:06:26.979Z,23.25
2023-04-11T15:07:27.963Z,23.27
2023-04-11T15:08:27.962Z,23.21
2023-04-11T15:09:27.954Z,23.19
2023-04-11T15:10:27.991Z,23.18
2023-04-11T15:11:26.936Z,23.19
2023-04-11T15:12:27.919Z,23.11
2023-04-11T15:13:26.928Z,23.15
2023-04-11T15:14:27.915Z,23.19
2023-04-11T15:15:27.920Z,23.23
2023-04-11T15:16:27.009Z,23.23
2023-04-11T15:17:27.928Z,23.24
2023-04-11T15:18:28.043Z,23.27
2023-04-11T15:19:26.873Z,23.29
2023-04-11T15:20:26.876Z,23.26
2023-04-11T15:21:26.861Z,23.28
2023-04-11T15:22:27.860Z,23.29
2023-04-11T15:23:26.858Z,23.30
2023-04-11T15:24:27.840Z,23.24
2023-04-11T15:25:27.832Z,23.22
2023-04-11T15:26:26.842Z,23.23
2023-04-11T15:27:27.815Z,23.24
2023-04-11T15:28:26.812Z,23.22
2023-04-11T15:29:26.815Z,23.18
